CheckWX is a tool to help pilots better visualize weather data.  It is not intended as a substitute for an official pre-flight weather briefing.

12:49:20 UTC

EGEO METAR
Oban Airport
North Connel, United Kingdom
Current

29 mins ago

EGEO 181220Z 20015KT 9999 VCSH FEW014 SCT019 BKN023 07/06 Q0999 RERA
Observed
Feb-18 @ 12:20 UTC
Wind
  • 200° at 15 KTS
Visibility
10,000+ meters
Flight Rules
MVFR
Cloud Levels
  • Few at 1,400' AGL
  • Scattered at 1,900' AGL
  • Broken at 2,300' AGL
Temperature
C / 45°F
Dewpoint
C / 43°F
Humidity
93%
Altimeter
29.5" Hg
Pressure
998.92 hPa
Previous

59 mins ago

EGEO 181150Z 22013KT 6000 RA SCT015 OVC019 07/05 Q0999
Observed
Feb-18 @ 11:50 UTC
Wind
  • 220° at 13 KTS
Visibility
6,003 meters
Flight Rules
MVFR
Conditions
Rain
Cloud Levels
  • Scattered at 1,500' AGL
  • Overcast at 1,900' AGL
Temperature
C / 45°F
Dewpoint
C / 41°F
Humidity
87%
Altimeter
29.5" Hg
Pressure
998.92 hPa
Previous

1 hour ago

EGEO 181120Z 21015KT 180V240 8000 VCSH SCT018 OVC024 07/05 Q0999
Observed
Feb-18 @ 11:20 UTC
Wind
  • 210° at 15 KTS
Visibility
7,998 meters
Flight Rules
MVFR
Cloud Levels
  • Scattered at 1,800' AGL
  • Overcast at 2,400' AGL
Temperature
C / 45°F
Dewpoint
C / 41°F
Humidity
87%
Altimeter
29.5" Hg
Pressure
998.92 hPa